sensor_id;sensor_type;location;lat;lon;timestamp;P1;durP1;ratioP1;P2;durP2;ratioP2
28623;SDS011;15813;46.932;19.658;2023-04-06T00:01:44;14.30;;;6.05;;
28623;SDS011;15813;46.932;19.658;2023-04-06T00:04:10;16.08;;;5.68;;
28623;SDS011;15813;46.932;19.658;2023-04-06T00:06:35;10.40;;;5.75;;
28623;SDS011;15813;46.932;19.658;2023-04-06T00:09:01;13.93;;;7.28;;
28623;SDS011;15813;46.932;19.658;2023-04-06T00:11:26;13.07;;;6.72;;
28623;SDS011;15813;46.932;19.658;2023-04-06T00:13:51;12.38;;;5.82;;
28623;SDS011;15813;46.932;19.658;2023-04-06T00:16:17;15.32;;;6.55;;
28623;SDS011;15813;46.932;19.658;2023-04-06T00:18:42;12.25;;;6.35;;
28623;SDS011;15813;46.932;19.658;2023-04-06T00:21:07;16.85;;;6.72;;
28623;SDS011;15813;46.932;19.658;2023-04-06T00:23:33;16.52;;;5.93;;
28623;SDS011;15813;46.932;19.658;2023-04-06T00:25:58;12.55;;;6.05;;
28623;SDS011;15813;46.932;19.658;2023-04-06T00:28:23;12.82;;;6.65;;
28623;SDS011;15813;46.932;19.658;2023-04-06T00:30:52;15.75;;;6.68;;
28623;SDS011;15813;46.932;19.658;2023-04-06T00:33:18;15.90;;;6.60;;
28623;SDS011;15813;46.932;19.658;2023-04-06T00:35:43;10.85;;;6.03;;
28623;SDS011;15813;46.932;19.658;2023-04-06T00:38:08;18.77;;;6.53;;
28623;SDS011;15813;46.932;19.658;2023-04-06T00:40:34;15.40;;;6.80;;
28623;SDS011;15813;46.932;19.658;2023-04-06T00:43:00;14.85;;;6.53;;
28623;SDS011;15813;46.932;19.658;2023-04-06T00:45:25;16.38;;;6.85;;
28623;SDS011;15813;46.932;19.658;2023-04-06T00:47:50;21.02;;;6.82;;
28623;SDS011;15813;46.932;19.658;2023-04-06T00:50:16;18.65;;;6.75;;
28623;SDS011;15813;46.932;19.658;2023-04-06T00:52:41;13.63;;;6.18;;
28623;SDS011;15813;46.932;19.658;2023-04-06T00:55:07;13.07;;;6.10;;
28623;SDS011;15813;46.932;19.658;2023-04-06T00:57:32;15.18;;;6.88;;
28623;SDS011;15813;46.932;19.658;2023-04-06T00:59:58;17.77;;;6.47;;
28623;SDS011;15813;46.932;19.658;2023-04-06T01:02:23;14.98;;;7.35;;
28623;SDS011;15813;46.932;19.658;2023-04-06T01:04:49;16.45;;;6.68;;
28623;SDS011;15813;46.932;19.658;2023-04-06T01:07:15;16.38;;;7.25;;
28623;SDS011;15813;46.932;19.658;2023-04-06T01:09:40;21.95;;;6.97;;
28623;SDS011;15813;46.932;19.658;2023-04-06T01:12:06;21.98;;;7.97;;
28623;SDS011;15813;46.932;19.658;2023-04-06T01:14:32;22.95;;;7.50;;
28623;SDS011;15813;46.932;19.658;2023-04-06T01:16:58;22.65;;;7.47;;
28623;SDS011;15813;46.932;19.658;2023-04-06T01:19:25;18.83;;;7.03;;
28623;SDS011;15813;46.932;19.658;2023-04-06T01:21:50;19.23;;;7.07;;
28623;SDS011;15813;46.932;19.658;2023-04-06T01:24:18;17.27;;;7.82;;
28623;SDS011;15813;46.932;19.658;2023-04-06T01:26:43;20.23;;;8.32;;
28623;SDS011;15813;46.932;19.658;2023-04-06T01:29:09;21.08;;;7.50;;
28623;SDS011;15813;46.932;19.658;2023-04-06T01:31:34;19.00;;;8.73;;
28623;SDS011;15813;46.932;19.658;2023-04-06T01:34:00;20.98;;;7.38;;
28623;SDS011;15813;46.932;19.658;2023-04-06T01:36:25;13.32;;;6.53;;
28623;SDS011;15813;46.932;19.658;2023-04-06T01:38:50;17.17;;;7.82;;
28623;SDS011;15813;46.932;19.658;2023-04-06T01:41:16;16.48;;;7.93;;
28623;SDS011;15813;46.932;19.658;2023-04-06T01:43:41;15.43;;;7.57;;
28623;SDS011;15813;46.932;19.658;2023-04-06T01:46:06;16.60;;;7.20;;
28623;SDS011;15813;46.932;19.658;2023-04-06T01:48:32;18.50;;;7.07;;
28623;SDS011;15813;46.932;19.658;2023-04-06T01:50:57;20.88;;;8.18;;
28623;SDS011;15813;46.932;19.658;2023-04-06T01:53:22;13.30;;;7.55;;
28623;SDS011;15813;46.932;19.658;2023-04-06T01:55:47;15.07;;;6.55;;
28623;SDS011;15813;46.932;19.658;2023-04-06T01:58:13;21.48;;;7.93;;
28623;SDS011;15813;46.932;19.658;2023-04-06T02:00:38;18.70;;;8.35;;
28623;SDS011;15813;46.932;19.658;2023-04-06T02:03:04;18.02;;;7.68;;
28623;SDS011;15813;46.932;19.658;2023-04-06T02:05:30;20.85;;;7.93;;
28623;SDS011;15813;46.932;19.658;2023-04-06T02:07:55;21.40;;;8.30;;
28623;SDS011;15813;46.932;19.658;2023-04-06T02:10:21;17.92;;;7.90;;
28623;SDS011;15813;46.932;19.658;2023-04-06T02:12:46;14.73;;;6.85;;
28623;SDS011;15813;46.932;19.658;2023-04-06T02:15:12;15.32;;;7.57;;
28623;SDS011;15813;46.932;19.658;2023-04-06T02:17:38;20.98;;;7.90;;
28623;SDS011;15813;46.932;19.658;2023-04-06T02:20:03;17.70;;;7.50;;
28623;SDS011;15813;46.932;19.658;2023-04-06T02:22:29;18.13;;;6.88;;
28623;SDS011;15813;46.932;19.658;2023-04-06T02:24:54;18.17;;;8.88;;
28623;SDS011;15813;46.932;19.658;2023-04-06T02:27:19;15.73;;;7.90;;
28623;SDS011;15813;46.932;19.658;2023-04-06T02:29:45;19.08;;;6.75;;
28623;SDS011;15813;46.932;19.658;2023-04-06T02:32:10;22.75;;;8.55;;
28623;SDS011;15813;46.932;19.658;2023-04-06T02:34:35;20.45;;;8.00;;
28623;SDS011;15813;46.932;19.658;2023-04-06T02:37:00;18.00;;;7.72;;
28623;SDS011;15813;46.932;19.658;2023-04-06T02:39:26;15.23;;;7.68;;
28623;SDS011;15813;46.932;19.658;2023-04-06T02:41:52;19.80;;;7.35;;
28623;SDS011;15813;46.932;19.658;2023-04-06T02:44:17;18.08;;;7.72;;
28623;SDS011;15813;46.932;19.658;2023-04-06T02:46:42;18.95;;;7.43;;
28623;SDS011;15813;46.932;19.658;2023-04-06T02:49:07;20.00;;;7.78;;
28623;SDS011;15813;46.932;19.658;2023-04-06T02:51:33;17.15;;;7.75;;
28623;SDS011;15813;46.932;19.658;2023-04-06T02:53:58;19.90;;;7.63;;
28623;SDS011;15813;46.932;19.658;2023-04-06T02:56:23;15.40;;;7.13;;
28623;SDS011;15813;46.932;19.658;2023-04-06T02:58:49;18.10;;;7.82;;
28623;SDS011;15813;46.932;19.658;2023-04-06T03:01:15;16.27;;;7.18;;
28623;SDS011;15813;46.932;19.658;2023-04-06T03:03:40;16.35;;;6.47;;
28623;SDS011;15813;46.932;19.658;2023-04-06T03:06:05;24.15;;;9.10;;
28623;SDS011;15813;46.932;19.658;2023-04-06T03:08:30;34.60;;;11.10;;
28623;SDS011;15813;46.932;19.658;2023-04-06T03:10:56;58.00;;;15.15;;
28623;SDS011;15813;46.932;19.658;2023-04-06T03:13:21;111.97;;;26.20;;
28623;SDS011;15813;46.932;19.658;2023-04-06T03:15:46;104.72;;;28.20;;
28623;SDS011;15813;46.932;19.658;2023-04-06T03:18:12;109.05;;;29.17;;
28623;SDS011;15813;46.932;19.658;2023-04-06T03:20:37;124.40;;;33.78;;
28623;SDS011;15813;46.932;19.658;2023-04-06T03:23:02;104.03;;;24.67;;
28623;SDS011;15813;46.932;19.658;2023-04-06T03:25:28;86.47;;;22.23;;
28623;SDS011;15813;46.932;19.658;2023-04-06T03:27:54;57.40;;;15.73;;
28623;SDS011;15813;46.932;19.658;2023-04-06T03:30:20;48.30;;;14.95;;
28623;SDS011;15813;46.932;19.658;2023-04-06T03:32:45;29.63;;;11.38;;
28623;SDS011;15813;46.932;19.658;2023-04-06T03:35:10;28.08;;;9.65;;
28623;SDS011;15813;46.932;19.658;2023-04-06T03:37:36;29.48;;;9.02;;
28623;SDS011;15813;46.932;19.658;2023-04-06T03:40:01;22.27;;;9.45;;
28623;SDS011;15813;46.932;19.658;2023-04-06T03:42:26;27.17;;;9.02;;
28623;SDS011;15813;46.932;19.658;2023-04-06T03:44:52;31.63;;;10.60;;
28623;SDS011;15813;46.932;19.658;2023-04-06T03:47:17;30.50;;;9.35;;
28623;SDS011;15813;46.932;19.658;2023-04-06T03:49:42;24.02;;;8.60;;
28623;SDS011;15813;46.932;19.658;2023-04-06T03:52:08;31.17;;;8.85;;
28623;SDS011;15813;46.932;19.658;2023-04-06T03:54:33;27.35;;;9.65;;
28623;SDS011;15813;46.932;19.658;2023-04-06T03:56:58;22.33;;;8.55;;
28623;SDS011;15813;46.932;19.658;2023-04-06T03:59:23;21.45;;;9.13;;
28623;SDS011;15813;46.932;19.658;2023-04-06T04:01:49;36.17;;;12.73;;
28623;SDS011;15813;46.932;19.658;2023-04-06T04:04:14;40.67;;;14.55;;
28623;SDS011;15813;46.932;19.658;2023-04-06T04:06:39;46.08;;;16.20;;
28623;SDS011;15813;46.932;19.658;2023-04-06T04:09:05;44.13;;;16.05;;
28623;SDS011;15813;46.932;19.658;2023-04-06T04:11:30;56.38;;;18.50;;
28623;SDS011;15813;46.932;19.658;2023-04-06T04:13:55;57.88;;;19.35;;
28623;SDS011;15813;46.932;19.658;2023-04-06T04:16:20;62.20;;;20.67;;
28623;SDS011;15813;46.932;19.658;2023-04-06T04:18:46;60.63;;;20.60;;
28623;SDS011;15813;46.932;19.658;2023-04-06T04:21:13;59.60;;;20.05;;
28623;SDS011;15813;46.932;19.658;2023-04-06T04:23:38;55.50;;;19.42;;
28623;SDS011;15813;46.932;19.658;2023-04-06T04:26:03;51.53;;;18.10;;
28623;SDS011;15813;46.932;19.658;2023-04-06T04:28:29;38.17;;;15.35;;
28623;SDS011;15813;46.932;19.658;2023-04-06T04:30:54;42.42;;;15.63;;
28623;SDS011;15813;46.932;19.658;2023-04-06T04:33:19;41.30;;;15.57;;
28623;SDS011;15813;46.932;19.658;2023-04-06T04:35:45;39.55;;;15.50;;
28623;SDS011;15813;46.932;19.658;2023-04-06T04:38:10;39.00;;;14.65;;
28623;SDS011;15813;46.932;19.658;2023-04-06T04:40:35;43.13;;;13.88;;
28623;SDS011;15813;46.932;19.658;2023-04-06T04:43:00;52.05;;;14.90;;
28623;SDS011;15813;46.932;19.658;2023-04-06T04:45:26;33.70;;;12.98;;
28623;SDS011;15813;46.932;19.658;2023-04-06T04:47:51;49.03;;;14.15;;
28623;SDS011;15813;46.932;19.658;2023-04-06T04:50:16;52.88;;;15.38;;
28623;SDS011;15813;46.932;19.658;2023-04-06T04:52:42;41.60;;;14.07;;
28623;SDS011;15813;46.932;19.658;2023-04-06T04:55:07;40.92;;;14.25;;
28623;SDS011;15813;46.932;19.658;2023-04-06T04:57:32;30.30;;;13.15;;
28623;SDS011;15813;46.932;19.658;2023-04-06T04:59:57;43.90;;;15.10;;
28623;SDS011;15813;46.932;19.658;2023-04-06T05:02:23;52.72;;;16.95;;
28623;SDS011;15813;46.932;19.658;2023-04-06T05:04:48;58.67;;;17.58;;
28623;SDS011;15813;46.932;19.658;2023-04-06T05:07:13;39.80;;;14.73;;
28623;SDS011;15813;46.932;19.658;2023-04-06T05:09:40;55.55;;;16.13;;
28623;SDS011;15813;46.932;19.658;2023-04-06T05:12:05;46.30;;;15.98;;
28623;SDS011;15813;46.932;19.658;2023-04-06T05:14:31;40.75;;;14.20;;
28623;SDS011;15813;46.932;19.658;2023-04-06T05:16:56;48.38;;;15.77;;
28623;SDS011;15813;46.932;19.658;2023-04-06T05:19:21;40.72;;;13.40;;
28623;SDS011;15813;46.932;19.658;2023-04-06T05:21:46;26.40;;;12.02;;
28623;SDS011;15813;46.932;19.658;2023-04-06T05:24:12;27.77;;;9.90;;
28623;SDS011;15813;46.932;19.658;2023-04-06T05:26:37;21.95;;;9.18;;
28623;SDS011;15813;46.932;19.658;2023-04-06T05:29:02;19.30;;;8.30;;
28623;SDS011;15813;46.932;19.658;2023-04-06T05:31:28;21.33;;;9.10;;
28623;SDS011;15813;46.932;19.658;2023-04-06T05:33:53;19.52;;;8.68;;
28623;SDS011;15813;46.932;19.658;2023-04-06T05:36:19;16.45;;;8.32;;
28623;SDS011;15813;46.932;19.658;2023-04-06T05:38:44;15.07;;;7.60;;
28623;SDS011;15813;46.932;19.658;2023-04-06T05:41:10;16.75;;;7.75;;
28623;SDS011;15813;46.932;19.658;2023-04-06T05:43:35;18.67;;;7.32;;
28623;SDS011;15813;46.932;19.658;2023-04-06T05:46:00;14.75;;;7.53;;
28623;SDS011;15813;46.932;19.658;2023-04-06T05:48:25;15.43;;;7.68;;
28623;SDS011;15813;46.932;19.658;2023-04-06T05:50:51;17.85;;;8.57;;
28623;SDS011;15813;46.932;19.658;2023-04-06T05:53:16;18.13;;;7.93;;
28623;SDS011;15813;46.932;19.658;2023-04-06T05:55:42;15.02;;;7.88;;
28623;SDS011;15813;46.932;19.658;2023-04-06T05:58:07;17.02;;;8.25;;
28623;SDS011;15813;46.932;19.658;2023-04-06T06:00:32;19.38;;;8.38;;
28623;SDS011;15813;46.932;19.658;2023-04-06T06:02:58;21.70;;;8.27;;
28623;SDS011;15813;46.932;19.658;2023-04-06T06:05:23;18.60;;;8.93;;
28623;SDS011;15813;46.932;19.658;2023-04-06T06:07:48;24.77;;;8.93;;
28623;SDS011;15813;46.932;19.658;2023-04-06T06:10:14;20.88;;;9.52;;
28623;SDS011;15813;46.932;19.658;2023-04-06T06:12:39;20.55;;;9.48;;
28623;SDS011;15813;46.932;19.658;2023-04-06T06:15:04;20.27;;;9.13;;
28623;SDS011;15813;46.932;19.658;2023-04-06T06:17:30;18.75;;;9.40;;
28623;SDS011;15813;46.932;19.658;2023-04-06T06:19:55;17.33;;;8.95;;
28623;SDS011;15813;46.932;19.658;2023-04-06T06:22:21;22.58;;;8.88;;
28623;SDS011;15813;46.932;19.658;2023-04-06T06:24:46;14.90;;;8.02;;
28623;SDS011;15813;46.932;19.658;2023-04-06T06:27:11;18.70;;;8.00;;
28623;SDS011;15813;46.932;19.658;2023-04-06T06:29:36;16.63;;;7.13;;
28623;SDS011;15813;46.932;19.658;2023-04-06T06:32:02;14.38;;;7.60;;
28623;SDS011;15813;46.932;19.658;2023-04-06T06:34:27;19.27;;;8.32;;
28623;SDS011;15813;46.932;19.658;2023-04-06T06:36:52;22.17;;;8.98;;
28623;SDS011;15813;46.932;19.658;2023-04-06T06:39:20;16.88;;;8.00;;
28623;SDS011;15813;46.932;19.658;2023-04-06T06:41:45;19.80;;;8.63;;
28623;SDS011;15813;46.932;19.658;2023-04-06T06:44:10;16.42;;;8.60;;
28623;SDS011;15813;46.932;19.658;2023-04-06T06:46:36;16.40;;;7.63;;
28623;SDS011;15813;46.932;19.658;2023-04-06T06:49:01;16.98;;;7.63;;
28623;SDS011;15813;46.932;19.658;2023-04-06T06:51:27;17.83;;;8.20;;
28623;SDS011;15813;46.932;19.658;2023-04-06T06:53:53;13.77;;;7.43;;
28623;SDS011;15813;46.932;19.658;2023-04-06T06:56:18;14.35;;;7.15;;
28623;SDS011;15813;46.932;19.658;2023-04-06T06:58:43;12.82;;;7.55;;
28623;SDS011;15813;46.932;19.658;2023-04-06T07:01:09;16.15;;;8.32;;
28623;SDS011;15813;46.932;19.658;2023-04-06T07:03:34;16.20;;;7.82;;
28623;SDS011;15813;46.932;19.658;2023-04-06T07:05:59;13.18;;;7.28;;
28623;SDS011;15813;46.932;19.658;2023-04-06T07:08:24;12.30;;;7.25;;
28623;SDS011;15813;46.932;19.658;2023-04-06T07:10:51;19.42;;;7.40;;
28623;SDS011;15813;46.932;19.658;2023-04-06T07:13:21;12.65;;;7.10;;
28623;SDS011;15813;46.932;19.658;2023-04-06T07:15:50;19.90;;;8.30;;
28623;SDS011;15813;46.932;19.658;2023-04-06T07:18:15;16.95;;;7.47;;
28623;SDS011;15813;46.932;19.658;2023-04-06T07:20:41;15.68;;;7.65;;
28623;SDS011;15813;46.932;19.658;2023-04-06T07:23:06;21.30;;;8.63;;
28623;SDS011;15813;46.932;19.658;2023-04-06T07:25:32;18.70;;;7.82;;
28623;SDS011;15813;46.932;19.658;2023-04-06T07:27:57;20.17;;;7.45;;
28623;SDS011;15813;46.932;19.658;2023-04-06T07:30:22;15.27;;;7.88;;
28623;SDS011;15813;46.932;19.658;2023-04-06T07:32:50;16.35;;;7.68;;
28623;SDS011;15813;46.932;19.658;2023-04-06T07:35:15;14.13;;;6.80;;
28623;SDS011;15813;46.932;19.658;2023-04-06T07:37:41;21.40;;;7.30;;
28623;SDS011;15813;46.932;19.658;2023-04-06T07:40:07;17.02;;;7.07;;
28623;SDS011;15813;46.932;19.658;2023-04-06T07:42:34;18.58;;;7.18;;
28623;SDS011;15813;46.932;19.658;2023-04-06T07:45:00;12.32;;;6.82;;
28623;SDS011;15813;46.932;19.658;2023-04-06T07:47:25;14.32;;;6.70;;
28623;SDS011;15813;46.932;19.658;2023-04-06T07:49:51;10.60;;;6.35;;
28623;SDS011;15813;46.932;19.658;2023-04-06T07:52:16;14.20;;;6.68;;
28623;SDS011;15813;46.932;19.658;2023-04-06T07:54:41;17.25;;;7.35;;
28623;SDS011;15813;46.932;19.658;2023-04-06T07:57:07;14.55;;;7.07;;
28623;SDS011;15813;46.932;19.658;2023-04-06T07:59:32;13.82;;;6.95;;
28623;SDS011;15813;46.932;19.658;2023-04-06T08:01:57;12.38;;;6.20;;
28623;SDS011;15813;46.932;19.658;2023-04-06T08:04:23;14.55;;;7.10;;
28623;SDS011;15813;46.932;19.658;2023-04-06T08:06:48;14.55;;;6.53;;
28623;SDS011;15813;46.932;19.658;2023-04-06T08:09:13;13.25;;;7.13;;
28623;SDS011;15813;46.932;19.658;2023-04-06T08:11:39;16.10;;;7.63;;
28623;SDS011;15813;46.932;19.658;2023-04-06T08:14:04;44.00;;;15.45;;
28623;SDS011;15813;46.932;19.658;2023-04-06T08:16:29;39.38;;;14.45;;
28623;SDS011;15813;46.932;19.658;2023-04-06T08:18:55;23.73;;;10.45;;
28623;SDS011;15813;46.932;19.658;2023-04-06T08:21:20;23.60;;;9.43;;
28623;SDS011;15813;46.932;19.658;2023-04-06T08:23:45;17.35;;;8.15;;
28623;SDS011;15813;46.932;19.658;2023-04-06T08:26:11;16.20;;;8.02;;
28623;SDS011;15813;46.932;19.658;2023-04-06T08:28:37;21.55;;;9.27;;
28623;SDS011;15813;46.932;19.658;2023-04-06T08:31:03;15.20;;;7.43;;
28623;SDS011;15813;46.932;19.658;2023-04-06T08:33:28;15.45;;;7.82;;
28623;SDS011;15813;46.932;19.658;2023-04-06T08:35:53;14.70;;;7.90;;
28623;SDS011;15813;46.932;19.658;2023-04-06T08:38:19;13.48;;;6.40;;
28623;SDS011;15813;46.932;19.658;2023-04-06T08:40:44;18.95;;;8.30;;
28623;SDS011;15813;46.932;19.658;2023-04-06T08:43:12;13.35;;;6.75;;
28623;SDS011;15813;46.932;19.658;2023-04-06T08:45:38;18.08;;;7.38;;
28623;SDS011;15813;46.932;19.658;2023-04-06T08:48:04;16.70;;;7.93;;
28623;SDS011;15813;46.932;19.658;2023-04-06T08:50:32;15.05;;;7.32;;
28623;SDS011;15813;46.932;19.658;2023-04-06T08:52:57;16.52;;;7.32;;
28623;SDS011;15813;46.932;19.658;2023-04-06T08:55:22;14.45;;;7.38;;
28623;SDS011;15813;46.932;19.658;2023-04-06T08:57:48;18.23;;;8.25;;
28623;SDS011;15813;46.932;19.658;2023-04-06T09:00:14;20.05;;;9.63;;
28623;SDS011;15813;46.932;19.658;2023-04-06T09:02:43;16.77;;;7.93;;
28623;SDS011;15813;46.932;19.658;2023-04-06T09:05:08;19.00;;;7.63;;
28623;SDS011;15813;46.932;19.658;2023-04-06T09:07:35;18.15;;;8.45;;
28623;SDS011;15813;46.932;19.658;2023-04-06T09:10:00;17.75;;;7.57;;
28623;SDS011;15813;46.932;19.658;2023-04-06T09:12:26;15.75;;;7.32;;
28623;SDS011;15813;46.932;19.658;2023-04-06T09:14:52;13.38;;;6.80;;
28623;SDS011;15813;46.932;19.658;2023-04-06T09:17:24;19.52;;;6.78;;
28623;SDS011;15813;46.932;19.658;2023-04-06T09:19:49;17.08;;;6.88;;
28623;SDS011;15813;46.932;19.658;2023-04-06T09:22:15;17.13;;;7.15;;
28623;SDS011;15813;46.932;19.658;2023-04-06T09:24:44;13.40;;;7.00;;
28623;SDS011;15813;46.932;19.658;2023-04-06T09:27:10;14.48;;;7.22;;
28623;SDS011;15813;46.932;19.658;2023-04-06T09:29:35;14.05;;;7.25;;
28623;SDS011;15813;46.932;19.658;2023-04-06T09:32:05;17.08;;;7.25;;
28623;SDS011;15813;46.932;19.658;2023-04-06T09:36:56;14.33;;;6.57;;
28623;SDS011;15813;46.932;19.658;2023-04-06T09:39:21;15.98;;;7.13;;
28623;SDS011;15813;46.932;19.658;2023-04-06T09:41:49;15.25;;;7.72;;
28623;SDS011;15813;46.932;19.658;2023-04-06T09:44:14;17.20;;;7.35;;
28623;SDS011;15813;46.932;19.658;2023-04-06T09:46:41;15.45;;;7.57;;
28623;SDS011;15813;46.932;19.658;2023-04-06T09:49:07;13.90;;;7.20;;
28623;SDS011;15813;46.932;19.658;2023-04-06T09:51:46;13.90;;;6.18;;
28623;SDS011;15813;46.932;19.658;2023-04-06T09:54:15;14.73;;;6.77;;
28623;SDS011;15813;46.932;19.658;2023-04-06T09:56:45;16.88;;;7.30;;
28623;SDS011;15813;46.932;19.658;2023-04-06T09:59:18;13.25;;;6.47;;
28623;SDS011;15813;46.932;19.658;2023-04-06T10:01:46;14.20;;;7.00;;
28623;SDS011;15813;46.932;19.658;2023-04-06T10:04:17;16.83;;;7.38;;
28623;SDS011;15813;46.932;19.658;2023-04-06T10:06:45;14.00;;;6.97;;
28623;SDS011;15813;46.932;19.658;2023-04-06T10:09:13;17.00;;;7.72;;
28623;SDS011;15813;46.932;19.658;2023-04-06T10:11:39;13.57;;;7.55;;
28623;SDS011;15813;46.932;19.658;2023-04-06T10:14:05;14.52;;;8.30;;
28623;SDS011;15813;46.932;19.658;2023-04-06T10:16:30;13.95;;;7.22;;
28623;SDS011;15813;46.932;19.658;2023-04-06T10:19:02;19.00;;;8.43;;
28623;SDS011;15813;46.932;19.658;2023-04-06T10:21:28;14.95;;;7.78;;
28623;SDS011;15813;46.932;19.658;2023-04-06T10:23:55;14.60;;;8.13;;
28623;SDS011;15813;46.932;19.658;2023-04-06T10:26:22;14.43;;;7.68;;
28623;SDS011;15813;46.932;19.658;2023-04-06T10:28:48;16.83;;;8.70;;
28623;SDS011;15813;46.932;19.658;2023-04-06T10:31:14;17.63;;;8.20;;
28623;SDS011;15813;46.932;19.658;2023-04-06T10:33:40;18.33;;;8.30;;
28623;SDS011;15813;46.932;19.658;2023-04-06T10:38:37;14.85;;;8.15;;
28623;SDS011;15813;46.932;19.658;2023-04-06T10:41:03;19.83;;;8.60;;
28623;SDS011;15813;46.932;19.658;2023-04-06T10:43:32;25.17;;;7.97;;
28623;SDS011;15813;46.932;19.658;2023-04-06T10:45:59;16.45;;;8.70;;
28623;SDS011;15813;46.932;19.658;2023-04-06T10:48:24;15.45;;;7.68;;
28623;SDS011;15813;46.932;19.658;2023-04-06T10:50:51;21.88;;;8.60;;
28623;SDS011;15813;46.932;19.658;2023-04-06T10:53:26;15.45;;;8.45;;
28623;SDS011;15813;46.932;19.658;2023-04-06T10:55:52;15.07;;;7.85;;
28623;SDS011;15813;46.932;19.658;2023-04-06T10:58:19;11.50;;;7.55;;
28623;SDS011;15813;46.932;19.658;2023-04-06T11:00:45;15.77;;;7.70;;
28623;SDS011;15813;46.932;19.658;2023-04-06T11:03:10;11.23;;;6.95;;
28623;SDS011;15813;46.932;19.658;2023-04-06T11:05:35;16.45;;;8.27;;
28623;SDS011;15813;46.932;19.658;2023-04-06T11:08:01;17.70;;;8.40;;
28623;SDS011;15813;46.932;19.658;2023-04-06T11:10:26;16.17;;;8.25;;
28623;SDS011;15813;46.932;19.658;2023-04-06T11:12:54;13.88;;;7.57;;
28623;SDS011;15813;46.932;19.658;2023-04-06T11:15:20;17.23;;;8.07;;
28623;SDS011;15813;46.932;19.658;2023-04-06T11:17:45;14.73;;;7.30;;
28623;SDS011;15813;46.932;19.658;2023-04-06T11:20:11;14.25;;;8.18;;
28623;SDS011;15813;46.932;19.658;2023-04-06T11:22:36;15.40;;;7.80;;
28623;SDS011;15813;46.932;19.658;2023-04-06T11:25:05;18.40;;;8.75;;
28623;SDS011;15813;46.932;19.658;2023-04-06T11:27:31;14.75;;;7.57;;
28623;SDS011;15813;46.932;19.658;2023-04-06T11:29:57;16.85;;;7.78;;
28623;SDS011;15813;46.932;19.658;2023-04-06T11:32:23;15.65;;;7.35;;
28623;SDS011;15813;46.932;19.658;2023-04-06T11:34:49;11.77;;;7.57;;
28623;SDS011;15813;46.932;19.658;2023-04-06T11:37:14;15.00;;;7.20;;
28623;SDS011;15813;46.932;19.658;2023-04-06T11:39:41;13.95;;;7.63;;
28623;SDS011;15813;46.932;19.658;2023-04-06T11:42:07;13.00;;;7.50;;
28623;SDS011;15813;46.932;19.658;2023-04-06T11:46:57;12.13;;;6.72;;
28623;SDS011;15813;46.932;19.658;2023-04-06T11:49:26;13.25;;;6.95;;
28623;SDS011;15813;46.932;19.658;2023-04-06T11:51:51;20.08;;;8.02;;
28623;SDS011;15813;46.932;19.658;2023-04-06T11:54:17;16.33;;;8.57;;
28623;SDS011;15813;46.932;19.658;2023-04-06T11:56:45;11.43;;;7.47;;
28623;SDS011;15813;46.932;19.658;2023-04-06T11:59:11;13.43;;;7.53;;
28623;SDS011;15813;46.932;19.658;2023-04-06T12:01:44;17.75;;;7.55;;
28623;SDS011;15813;46.932;19.658;2023-04-06T12:04:09;15.88;;;8.40;;
28623;SDS011;15813;46.932;19.658;2023-04-06T12:06:34;16.58;;;7.88;;
28623;SDS011;15813;46.932;19.658;2023-04-06T12:09:00;19.33;;;8.10;;
28623;SDS011;15813;46.932;19.658;2023-04-06T12:11:25;16.23;;;8.05;;
28623;SDS011;15813;46.932;19.658;2023-04-06T12:13:50;14.52;;;8.05;;
28623;SDS011;15813;46.932;19.658;2023-04-06T12:16:16;18.20;;;7.60;;
28623;SDS011;15813;46.932;19.658;2023-04-06T12:18:41;17.40;;;8.15;;
28623;SDS011;15813;46.932;19.658;2023-04-06T12:21:06;15.43;;;7.53;;
28623;SDS011;15813;46.932;19.658;2023-04-06T12:23:32;16.30;;;7.72;;
28623;SDS011;15813;46.932;19.658;2023-04-06T12:25:57;18.08;;;7.75;;
28623;SDS011;15813;46.932;19.658;2023-04-06T12:28:22;15.15;;;7.38;;
28623;SDS011;15813;46.932;19.658;2023-04-06T12:30:51;15.73;;;7.50;;
28623;SDS011;15813;46.932;19.658;2023-04-06T12:33:17;17.60;;;7.85;;
28623;SDS011;15813;46.932;19.658;2023-04-06T12:35:42;18.17;;;8.18;;
28623;SDS011;15813;46.932;19.658;2023-04-06T12:38:07;13.07;;;7.18;;
28623;SDS011;15813;46.932;19.658;2023-04-06T12:40:36;13.65;;;7.82;;
28623;SDS011;15813;46.932;19.658;2023-04-06T12:43:01;18.13;;;7.80;;
28623;SDS011;15813;46.932;19.658;2023-04-06T12:45:26;17.75;;;7.65;;
28623;SDS011;15813;46.932;19.658;2023-04-06T12:47:51;15.02;;;7.72;;
28623;SDS011;15813;46.932;19.658;2023-04-06T12:50:17;11.10;;;6.70;;
28623;SDS011;15813;46.932;19.658;2023-04-06T12:52:42;12.82;;;6.97;;
28623;SDS011;15813;46.932;19.658;2023-04-06T12:55:08;16.88;;;7.72;;
28623;SDS011;15813;46.932;19.658;2023-04-06T12:57:33;14.70;;;6.63;;
28623;SDS011;15813;46.932;19.658;2023-04-06T12:59:58;13.15;;;6.35;;
28623;SDS011;15813;46.932;19.658;2023-04-06T13:02:25;14.70;;;6.57;;
28623;SDS011;15813;46.932;19.658;2023-04-06T13:04:51;12.15;;;6.13;;
28623;SDS011;15813;46.932;19.658;2023-04-06T13:07:16;15.15;;;7.47;;
28623;SDS011;15813;46.932;19.658;2023-04-06T13:09:41;16.13;;;7.43;;
28623;SDS011;15813;46.932;19.658;2023-04-06T13:12:07;16.55;;;6.78;;
28623;SDS011;15813;46.932;19.658;2023-04-06T13:14:32;13.90;;;6.65;;
28623;SDS011;15813;46.932;19.658;2023-04-06T13:16:57;17.95;;;7.20;;
28623;SDS011;15813;46.932;19.658;2023-04-06T13:19:23;14.90;;;7.28;;
28623;SDS011;15813;46.932;19.658;2023-04-06T13:21:48;17.08;;;8.05;;
28623;SDS011;15813;46.932;19.658;2023-04-06T13:24:13;100.20;;;13.27;;
28623;SDS011;15813;46.932;19.658;2023-04-06T13:26:39;26.33;;;8.45;;
28623;SDS011;15813;46.932;19.658;2023-04-06T13:29:04;18.58;;;8.40;;
28623;SDS011;15813;46.932;19.658;2023-04-06T13:31:29;21.95;;;9.18;;
28623;SDS011;15813;46.932;19.658;2023-04-06T13:33:55;22.77;;;10.13;;
28623;SDS011;15813;46.932;19.658;2023-04-06T13:36:20;21.90;;;10.27;;
28623;SDS011;15813;46.932;19.658;2023-04-06T13:38:46;26.30;;;10.00;;
28623;SDS011;15813;46.932;19.658;2023-04-06T13:41:19;22.42;;;10.77;;
28623;SDS011;15813;46.932;19.658;2023-04-06T13:43:45;24.70;;;10.38;;
28623;SDS011;15813;46.932;19.658;2023-04-06T13:46:11;23.20;;;10.82;;
28623;SDS011;15813;46.932;19.658;2023-04-06T13:48:36;22.02;;;10.80;;
28623;SDS011;15813;46.932;19.658;2023-04-06T13:51:11;25.02;;;10.50;;
28623;SDS011;15813;46.932;19.658;2023-04-06T13:53:37;19.17;;;9.68;;
28623;SDS011;15813;46.932;19.658;2023-04-06T13:56:02;22.42;;;10.25;;
28623;SDS011;15813;46.932;19.658;2023-04-06T13:58:27;24.35;;;10.40;;
28623;SDS011;15813;46.932;19.658;2023-04-06T14:00:52;20.98;;;10.05;;
28623;SDS011;15813;46.932;19.658;2023-04-06T14:03:18;20.55;;;10.48;;
28623;SDS011;15813;46.932;19.658;2023-04-06T14:05:44;17.58;;;10.13;;
28623;SDS011;15813;46.932;19.658;2023-04-06T14:08:09;16.60;;;9.73;;
28623;SDS011;15813;46.932;19.658;2023-04-06T14:10:38;21.92;;;10.52;;
28623;SDS011;15813;46.932;19.658;2023-04-06T14:13:03;22.48;;;11.00;;
28623;SDS011;15813;46.932;19.658;2023-04-06T14:15:29;22.10;;;11.30;;
28623;SDS011;15813;46.932;19.658;2023-04-06T14:17:55;18.55;;;9.45;;